Time,TemperatureF,DewpointF,PressureIn,WindDirection,WindDirectionDegrees,WindSpeedMPH,WindSpeedGustMPH,Humidity,HourlyPrecipIn,Conditions,Clouds,dailyrainin,SoftwareType,DateUTC
2013-02-28 00:03:00,51.0,46.0,30.37,SE,135,0.0,0.0,83,0.00,,,0.00,WeatherCatV1.13B119,2013-02-28 08:03:00,
2013-02-28 00:08:00,50.7,45.7,30.37,SE,135,0.0,0.0,83,0.00,,,0.00,WeatherCatV1.13B119,2013-02-28 08:08:00,
2013-02-28 00:13:00,50.7,45.4,30.37,ENE,61,0.0,0.0,82,0.00,,,0.00,WeatherCatV1.13B119,2013-02-28 08:13:00,
2013-02-28 00:18:00,52.0,45.7,30.37,ENE,61,0.0,0.0,79,0.00,,,0.00,WeatherCatV1.13B119,2013-02-28 08:18:00,
2013-02-28 00:23:00,52.5,46.2,30.37,ENE,60,0.0,0.0,79,0.00,,,0.00,WeatherCatV1.13B119,2013-02-28 08:23:00,
2013-02-28 00:28:00,52.3,46.0,30.37,ENE,61,0.0,0.0,79,0.00,,,0.00,WeatherCatV1.13B119,2013-02-28 08:28:00,
2013-02-28 00:33:00,52.4,45.7,30.37,ENE,60,0.0,0.0,78,0.00,,,0.00,WeatherCatV1.13B119,2013-02-28 08:33:00,
2013-02-28 00:38:00,52.7,45.7,30.37,ENE,61,0.0,0.0,77,0.00,,,0.00,WeatherCatV1.13B119,2013-02-28 08:38:00,
2013-02-28 00:43:00,53.1,45.7,30.37,ENE,60,0.0,0.0,76,0.00,,,0.00,WeatherCatV1.13B119,2013-02-28 08:43:00,
2013-02-28 00:48:00,53.3,46.3,30.37,ENE,59,0.0,0.0,77,0.00,,,0.00,WeatherCatV1.13B119,2013-02-28 08:48:00,
2013-02-28 00:53:00,53.3,45.9,30.37,ENE,60,0.0,0.0,76,0.00,,,0.00,WeatherCatV1.13B119,2013-02-28 08:53:00,
2013-02-28 00:58:00,53.6,45.9,30.37,ENE,59,0.0,0.0,75,0.00,,,0.00,WeatherCatV1.13B119,2013-02-28 08:58:00,
2013-02-28 01:03:00,54.0,46.3,30.37,WSW,240,0.0,0.0,75,0.00,,,0.00,WeatherCatV1.13B119,2013-02-28 09:03:00,
2013-02-28 01:08:00,53.3,46.6,30.37,SSW,200,0.0,0.0,78,0.00,,,0.00,WeatherCatV1.13B119,2013-02-28 09:08:00,
2013-02-28 01:13:00,52.2,46.5,30.38,WSW,256,0.0,0.0,81,0.00,,,0.00,WeatherCatV1.13B119,2013-02-28 09:13:00,
2013-02-28 01:18:00,51.2,46.2,30.38,WSW,256,0.0,0.0,83,0.00,,,0.00,WeatherCatV1.13B119,2013-02-28 09:18:00,
2013-02-28 01:23:00,50.7,46.0,30.38,WSW,253,0.0,0.0,84,0.00,,,0.00,WeatherCatV1.13B119,2013-02-28 09:23:00,
2013-02-28 01:28:00,50.4,46.1,30.38,West,259,0.0,0.0,85,0.00,,,0.00,WeatherCatV1.13B119,2013-02-28 09:28:00,
2013-02-28 01:33:00,50.1,46.1,30.38,WSW,244,0.0,0.0,86,0.00,,,0.00,WeatherCatV1.13B119,2013-02-28 09:33:00,
2013-02-28 01:38:00,49.8,45.8,30.38,WSW,248,0.0,0.0,86,0.00,,,0.00,WeatherCatV1.13B119,2013-02-28 09:38:00,
2013-02-28 01:43:00,49.6,45.9,30.38,WSW,256,2.0,3.0,87,0.00,,,0.00,WeatherCatV1.13B119,2013-02-28 09:43:00,
2013-02-28 01:48:00,49.5,45.8,30.38,SW,233,2.0,5.0,87,0.00,,,0.00,WeatherCatV1.13B119,2013-02-28 09:48:00,
2013-02-28 01:53:00,49.4,46.0,30.38,WSW,248,1.0,3.0,88,0.00,,,0.00,WeatherCatV1.13B119,2013-02-28 09:53:00,
2013-02-28 01:58:00,49.4,46.0,30.38,WSW,238,4.0,5.0,88,0.00,,,0.00,WeatherCatV1.13B119,2013-02-28 09:58:00,
2013-02-28 02:03:00,49.4,46.0,30.38,SSW,204,2.0,4.0,88,0.00,,,0.00,WeatherCatV1.13B119,2013-02-28 10:03:00,
2013-02-28 02:08:00,49.4,46.3,30.38,SW,218,2.0,2.0,89,0.00,,,0.00,WeatherCatV1.13B119,2013-02-28 10:08:00,
2013-02-28 02:13:00,49.4,46.3,30.38,SW,225,2.0,2.0,89,0.00,,,0.00,WeatherCatV1.13B119,2013-02-28 10:13:00,
2013-02-28 02:18:00,49.3,46.2,30.38,SW,229,1.0,3.0,89,0.00,,,0.00,WeatherCatV1.13B119,2013-02-28 10:18:00,
2013-02-28 02:23:00,49.2,46.1,30.38,West,264,2.0,2.0,89,0.00,,,0.00,WeatherCatV1.13B119,2013-02-28 10:23:00,
2013-02-28 02:28:00,49.2,46.1,30.38,WSW,247,1.0,2.0,89,0.00,,,0.00,WeatherCatV1.13B119,2013-02-28 10:28:00,
2013-02-28 02:33:00,49.1,46.0,30.37,SW,235,3.0,3.0,89,0.00,,,0.00,WeatherCatV1.13B119,2013-02-28 10:33:00,
2013-02-28 02:38:00,49.1,46.0,30.37,SW,219,1.0,2.0,89,0.00,,,0.00,WeatherCatV1.13B119,2013-02-28 10:38:00,
2013-02-28 02:43:00,49.0,45.9,30.38,SSE,163,1.0,2.0,89,0.00,,,0.00,WeatherCatV1.13B119,2013-02-28 10:43:00,
2013-02-28 02:48:00,49.0,45.9,30.38,South,189,1.0,3.0,89,0.00,,,0.00,WeatherCatV1.13B119,2013-02-28 10:48:00,
2013-02-28 02:53:00,49.0,46.2,30.38,West,260,2.0,2.0,90,0.00,,,0.00,WeatherCatV1.13B119,2013-02-28 10:53:00,
2013-02-28 02:58:00,49.0,46.2,30.38,WSW,250,2.0,2.0,90,0.00,,,0.00,WeatherCatV1.13B119,2013-02-28 10:58:00,
2013-02-28 03:03:00,49.0,46.2,30.37,WSW,249,0.0,2.0,90,0.00,,,0.00,WeatherCatV1.13B119,2013-02-28 11:03:00,
2013-02-28 03:08:00,49.0,46.2,30.37,SSW,204,2.0,2.0,90,0.00,,,0.00,WeatherCatV1.13B119,2013-02-28 11:08:00,
2013-02-28 03:13:00,48.9,46.1,30.37,WSW,256,2.0,4.0,90,0.00,,,0.00,WeatherCatV1.13B119,2013-02-28 11:13:00,
2013-02-28 03:18:00,48.9,46.1,30.38,WSW,243,3.0,3.0,90,0.00,,,0.00,WeatherCatV1.13B119,2013-02-28 11:18:00,
2013-02-28 03:23:00,48.9,46.1,30.38,SW,228,2.0,3.0,90,0.00,,,0.00,WeatherCatV1.13B119,2013-02-28 11:23:00,
2013-02-28 03:28:00,48.8,46.0,30.37,SW,226,1.0,2.0,90,0.00,,,0.00,WeatherCatV1.13B119,2013-02-28 11:28:00,
2013-02-28 03:33:00,48.8,46.0,30.37,SW,217,0.0,0.0,90,0.00,,,0.00,WeatherCatV1.13B119,2013-02-28 11:33:00,
2013-02-28 03:38:00,48.8,46.0,30.37,SW,217,0.0,0.0,90,0.00,,,0.00,WeatherCatV1.13B119,2013-02-28 11:38:00,
2013-02-28 03:43:00,48.8,46.0,30.38,SW,217,0.0,0.0,90,0.00,,,0.00,WeatherCatV1.13B119,2013-02-28 11:43:00,
2013-02-28 03:48:00,48.6,45.8,30.38,SW,217,0.0,0.0,90,0.00,,,0.00,WeatherCatV1.13B119,2013-02-28 11:48:00,
2013-02-28 03:53:00,48.6,45.8,30.38,SW,216,0.0,0.0,90,0.00,,,0.00,WeatherCatV1.13B119,2013-02-28 11:53:00,
2013-02-28 03:58:00,48.6,45.8,30.37,SW,217,0.0,0.0,90,0.00,,,0.00,WeatherCatV1.13B119,2013-02-28 11:58:00,
2013-02-28 04:03:00,48.5,45.7,30.37,SW,215,0.0,0.0,90,0.00,,,0.00,WeatherCatV1.13B119,2013-02-28 12:03:00,
2013-02-28 04:08:00,48.5,45.7,30.37,SW,215,0.0,0.0,90,0.00,,,0.00,WeatherCatV1.13B119,2013-02-28 12:08:00,
2013-02-28 04:13:00,48.5,45.7,30.37,SW,215,0.0,0.0,90,0.00,,,0.00,WeatherCatV1.13B119,2013-02-28 12:13:00,
2013-02-28 04:18:00,48.6,45.8,30.37,SW,215,0.0,0.0,90,0.00,,,0.00,WeatherCatV1.13B119,2013-02-28 12:18:00,
2013-02-28 04:23:00,48.6,45.8,30.37,SW,215,0.0,0.0,90,0.00,,,0.00,WeatherCatV1.13B119,2013-02-28 12:23:00,
2013-02-28 04:28:00,48.6,45.8,30.38,SW,215,0.0,0.0,90,0.00,,,0.00,WeatherCatV1.13B119,2013-02-28 12:28:00,
2013-02-28 04:33:00,48.6,45.8,30.38,SW,215,0.0,0.0,90,0.00,,,0.00,WeatherCatV1.13B119,2013-02-28 12:33:00,
2013-02-28 04:38:00,48.6,45.8,30.38,SW,215,0.0,0.0,90,0.00,,,0.00,WeatherCatV1.13B119,2013-02-28 12:38:00,
2013-02-28 04:43:00,48.6,45.8,30.37,WSW,252,0.0,0.0,90,0.00,,,0.00,WeatherCatV1.13B119,2013-02-28 12:43:00,
2013-02-28 04:48:00,48.6,45.8,30.38,WSW,238,2.0,2.0,90,0.00,,,0.00,WeatherCatV1.13B119,2013-02-28 12:48:00,
2013-02-28 04:53:00,48.6,45.8,30.38,West,260,2.0,3.0,90,0.00,,,0.00,WeatherCatV1.13B119,2013-02-28 12:53:00,
2013-02-28 04:58:00,48.6,45.8,30.38,WSW,246,3.0,3.0,90,0.00,,,0.00,WeatherCatV1.13B119,2013-02-28 12:58:00,
2013-02-28 05:03:00,48.5,46.0,30.38,WSW,240,3.0,4.0,91,0.00,,,0.00,WeatherCatV1.13B119,2013-02-28 13:03:00,
2013-02-28 05:08:00,48.4,45.9,30.39,West,267,2.0,3.0,91,0.00,,,0.00,WeatherCatV1.13B119,2013-02-28 13:08:00,
2013-02-28 05:13:00,48.6,46.1,30.39,West,260,1.0,2.0,91,0.00,,,0.00,WeatherCatV1.13B119,2013-02-28 13:13:00,
2013-02-28 05:18:00,48.6,46.1,30.39,WSW,255,1.0,2.0,91,0.00,,,0.00,WeatherCatV1.13B119,2013-02-28 13:18:00,
2013-02-28 05:23:00,48.6,46.1,30.39,WSW,245,0.0,0.0,91,0.00,,,0.00,WeatherCatV1.13B119,2013-02-28 13:23:00,
2013-02-28 05:28:00,48.6,46.1,30.39,WSW,239,0.0,0.0,91,0.00,,,0.00,WeatherCatV1.13B119,2013-02-28 13:28:00,
2013-02-28 05:33:00,48.7,46.2,30.39,SW,233,0.0,0.0,91,0.00,,,0.00,WeatherCatV1.13B119,2013-02-28 13:33:00,
2013-02-28 05:38:00,48.7,46.2,30.39,South,189,0.0,0.0,91,0.00,,,0.00,WeatherCatV1.13B119,2013-02-28 13:38:00,
2013-02-28 05:43:00,48.8,46.3,30.40,South,188,0.0,0.0,91,0.00,,,0.00,WeatherCatV1.13B119,2013-02-28 13:43:00,
2013-02-28 05:48:00,48.7,46.2,30.40,South,189,0.0,0.0,91,0.00,,,0.00,WeatherCatV1.13B119,2013-02-28 13:48:00,
2013-02-28 05:53:00,48.7,46.2,30.41,South,188,0.0,0.0,91,0.00,,,0.00,WeatherCatV1.13B119,2013-02-28 13:53:00,
2013-02-28 05:58:00,48.8,46.3,30.41,South,189,0.0,0.0,91,0.00,,,0.00,WeatherCatV1.13B119,2013-02-28 13:58:00,
2013-02-28 06:03:00,48.9,46.4,30.41,South,188,0.0,0.0,91,0.00,,,0.00,WeatherCatV1.13B119,2013-02-28 14:03:00,
2013-02-28 06:08:00,48.9,46.4,30.41,South,188,0.0,0.0,91,0.00,,,0.00,WeatherCatV1.13B119,2013-02-28 14:08:00,
2013-02-28 06:13:00,49.0,46.5,30.40,South,188,0.0,0.0,91,0.00,,,0.00,WeatherCatV1.13B119,2013-02-28 14:13:00,
2013-02-28 06:18:00,49.0,46.5,30.40,SSW,207,0.0,0.0,91,0.00,,,0.00,WeatherCatV1.13B119,2013-02-28 14:18:00,
2013-02-28 06:23:00,49.0,46.5,30.40,SSW,207,0.0,0.0,91,0.00,,,0.00,WeatherCatV1.13B119,2013-02-28 14:23:00,
2013-02-28 06:28:00,49.0,46.5,30.41,WSW,249,0.0,0.0,91,0.00,,,0.00,WeatherCatV1.13B119,2013-02-28 14:28:00,
2013-02-28 06:33:00,49.0,46.5,30.41,WSW,249,0.0,0.0,91,0.00,,,0.00,WeatherCatV1.13B119,2013-02-28 14:33:00,
2013-02-28 06:38:00,49.0,46.5,30.41,ESE,121,0.0,0.0,91,0.00,,,0.00,WeatherCatV1.13B119,2013-02-28 14:38:00,
2013-02-28 06:43:00,49.0,46.5,30.41,ESE,121,0.0,0.0,91,0.00,,,0.00,WeatherCatV1.13B119,2013-02-28 14:43:00,
2013-02-28 06:48:00,49.1,46.6,30.41,ESE,121,0.0,0.0,91,0.00,,,0.00,WeatherCatV1.13B119,2013-02-28 14:48:00,
2013-02-28 06:53:00,49.1,46.6,30.41,SSW,201,0.0,0.0,91,0.00,,,0.00,WeatherCatV1.13B119,2013-02-28 14:53:00,
2013-02-28 06:58:00,49.2,46.7,30.42,SSW,201,0.0,0.0,91,0.00,,,0.00,WeatherCatV1.13B119,2013-02-28 14:58:00,
2013-02-28 07:03:00,49.3,46.8,30.42,SSW,201,0.0,0.0,91,0.00,,,0.00,WeatherCatV1.13B119,2013-02-28 15:03:00,
2013-02-28 07:08:00,49.4,46.9,30.42,SSW,201,0.0,0.0,91,0.00,,,0.00,WeatherCatV1.13B119,2013-02-28 15:08:00,
2013-02-28 07:13:00,49.6,47.1,30.42,WSW,250,0.0,0.0,91,0.00,,,0.00,WeatherCatV1.13B119,2013-02-28 15:13:00,
2013-02-28 07:18:00,49.8,47.3,30.42,ESE,111,0.0,0.0,91,0.00,,,0.00,WeatherCatV1.13B119,2013-02-28 15:18:00,
2013-02-28 07:23:00,50.0,47.5,30.42,ESE,111,0.0,0.0,91,0.00,,,0.00,WeatherCatV1.13B119,2013-02-28 15:23:00,
2013-02-28 07:28:00,50.4,47.9,30.42,SW,234,0.0,0.0,91,0.00,,,0.00,WeatherCatV1.13B119,2013-02-28 15:28:00,
2013-02-28 07:33:00,50.7,48.2,30.42,SW,235,0.0,0.0,91,0.00,,,0.00,WeatherCatV1.13B119,2013-02-28 15:33:00,
2013-02-28 07:38:00,50.8,48.3,30.42,SW,235,0.0,0.0,91,0.00,,,0.00,WeatherCatV1.13B119,2013-02-28 15:38:00,
2013-02-28 07:43:00,50.8,48.3,30.42,SW,236,0.0,0.0,91,0.00,,,0.00,WeatherCatV1.13B119,2013-02-28 15:43:00,
2013-02-28 07:48:00,51.0,48.2,30.42,SW,236,0.0,0.0,90,0.00,,,0.00,WeatherCatV1.13B119,2013-02-28 15:48:00,
2013-02-28 07:53:00,51.2,48.4,30.42,SW,236,0.0,0.0,90,0.00,,,0.00,WeatherCatV1.13B119,2013-02-28 15:53:00,
2013-02-28 07:58:00,51.5,48.7,30.43,WSW,239,0.0,0.0,90,0.00,,,0.00,WeatherCatV1.13B119,2013-02-28 15:58:00,
2013-02-28 08:03:00,51.6,48.8,30.43,WSW,253,0.0,0.0,90,0.00,,,0.00,WeatherCatV1.13B119,2013-02-28 16:03:00,
2013-02-28 08:08:00,51.3,48.2,30.43,WSW,256,0.0,0.0,89,0.00,,,0.00,WeatherCatV1.13B119,2013-02-28 16:08:00,
2013-02-28 08:13:00,51.1,48.0,30.43,WSW,256,0.0,0.0,89,0.00,,,0.00,WeatherCatV1.13B119,2013-02-28 16:13:00,
2013-02-28 08:18:00,51.2,48.1,30.43,WSW,248,0.0,0.0,89,0.00,,,0.00,WeatherCatV1.13B119,2013-02-28 16:18:00,
2013-02-28 08:23:00,51.1,48.0,30.43,WSW,257,0.0,0.0,89,0.00,,,0.00,WeatherCatV1.13B119,2013-02-28 16:23:00,
2013-02-28 08:28:00,51.0,47.9,30.43,WSW,256,0.0,0.0,89,0.00,,,0.00,WeatherCatV1.13B119,2013-02-28 16:28:00,
2013-02-28 08:36:00,51.8,48.7,30.43,SW,224,0.0,0.0,89,0.00,,,0.00,WeatherCatV1.14B232,2013-02-28 16:36:00,
2013-02-28 08:41:00,52.4,49.0,30.44,WSW,239,2.0,2.0,88,0.00,,,0.00,WeatherCatV1.14B232,2013-02-28 16:41:00,
2013-02-28 08:46:00,53.3,49.5,30.44,SW,235,1.0,1.0,87,0.00,,,0.00,WeatherCatV1.14B232,2013-02-28 16:46:00,
2013-02-28 08:51:00,53.8,49.7,30.44,WSW,241,1.0,1.0,86,0.00,,,0.00,WeatherCatV1.14B232,2013-02-28 16:51:00,
2013-02-28 08:56:00,53.7,49.3,30.45,WSW,240,0.0,2.0,85,0.00,,,0.00,WeatherCatV1.14B232,2013-02-28 16:56:00,
2013-02-28 09:01:00,54.1,49.7,30.45,West,259,3.0,3.0,85,0.00,,,0.00,WeatherCatV1.14B232,2013-02-28 17:01:00,
2013-02-28 09:07:00,54.0,49.6,30.45,WSW,238,1.0,3.0,85,0.00,,,0.00,WeatherCatV1.14B232,2013-02-28 17:07:00,
2013-02-28 09:12:00,54.0,49.3,30.45,SSW,198,1.0,4.0,84,0.00,,,0.00,WeatherCatV1.14B232,2013-02-28 17:12:00,
2013-02-28 09:17:00,54.2,49.5,30.45,WSW,240,4.0,5.0,84,0.00,,,0.00,WeatherCatV1.14B232,2013-02-28 17:17:00,
2013-02-28 09:22:00,54.5,49.8,30.45,WSW,253,3.0,4.0,84,0.00,,,0.00,WeatherCatV1.14B232,2013-02-28 17:22:00,
2013-02-28 09:27:00,54.7,50.0,30.45,WSW,240,3.0,4.0,84,0.00,,,0.00,WeatherCatV1.14B232,2013-02-28 17:27:00,
2013-02-28 09:32:00,55.0,49.9,30.45,WSW,246,3.0,5.0,83,0.00,,,0.00,WeatherCatV1.14B232,2013-02-28 17:32:00,
2013-02-28 09:37:00,55.4,50.0,30.45,WSW,244,2.0,4.0,82,0.00,,,0.00,WeatherCatV1.14B232,2013-02-28 17:37:00,
2013-02-28 09:42:00,55.6,50.2,30.45,SSW,205,2.0,4.0,82,0.00,,,0.00,WeatherCatV1.14B232,2013-02-28 17:42:00,
2013-02-28 09:47:00,55.6,50.5,30.45,SW,225,3.0,5.0,83,0.00,,,0.00,WeatherCatV1.14B232,2013-02-28 17:47:00,
2013-02-28 09:52:00,55.6,50.2,30.45,West,264,3.0,4.0,82,0.00,,,0.00,WeatherCatV1.14B232,2013-02-28 17:52:00,
2013-02-28 09:57:00,56.2,50.8,30.45,SW,231,2.0,3.0,82,0.00,,,0.00,WeatherCatV1.14B232,2013-02-28 17:57:00,
2013-02-28 10:02:00,56.8,50.7,30.46,SW,223,1.0,1.0,80,0.00,,,0.00,WeatherCatV1.14B232,2013-02-28 18:02:00,
2013-02-28 10:07:00,57.5,51.4,30.45,SW,226,0.0,0.0,80,0.00,,,0.00,WeatherCatV1.14B232,2013-02-28 18:07:00,
2013-02-28 10:12:00,59.3,53.1,30.45,SW,226,0.0,0.0,80,0.00,,,0.00,WeatherCatV1.14B232,2013-02-28 18:12:00,
2013-02-28 10:17:00,61.3,53.7,30.45,SW,223,0.0,0.0,76,0.00,,,0.00,WeatherCatV1.14B232,2013-02-28 18:17:00,
2013-02-28 10:22:00,61.9,53.5,30.45,SW,232,0.0,0.0,74,0.00,,,0.00,WeatherCatV1.14B232,2013-02-28 18:22:00,
2013-02-28 10:27:00,61.3,52.6,30.45,SSW,208,3.0,4.0,73,0.00,,,0.00,WeatherCatV1.14B232,2013-02-28 18:27:00,
2013-02-28 10:32:00,60.4,52.1,30.45,WSW,245,3.0,4.0,74,0.00,,,0.00,WeatherCatV1.14B232,2013-02-28 18:32:00,
2013-02-28 10:37:00,59.9,52.0,30.45,SW,224,4.0,6.0,75,0.00,,,0.00,WeatherCatV1.14B232,2013-02-28 18:37:00,
2013-02-28 10:42:00,59.4,51.8,30.45,SW,215,4.0,6.0,76,0.00,,,0.00,WeatherCatV1.14B232,2013-02-28 18:42:00,
2013-02-28 10:47:00,58.8,51.6,30.45,WSW,256,3.0,5.0,77,0.00,,,0.00,WeatherCatV1.14B232,2013-02-28 18:47:00,
2013-02-28 10:52:00,58.6,51.8,30.45,WSW,247,3.0,4.0,78,0.00,,,0.00,WeatherCatV1.14B232,2013-02-28 18:52:00,
2013-02-28 10:57:00,59.0,52.1,30.45,WSW,257,5.0,5.0,78,0.00,,,0.00,WeatherCatV1.14B232,2013-02-28 18:57:00,
2013-02-28 11:03:00,59.0,51.4,30.45,ESE,103,2.0,5.0,76,0.00,,,0.00,WeatherCatV1.14B232,2013-02-28 19:03:00,
2013-02-28 11:08:00,59.6,51.7,30.44,WSW,242,1.0,4.0,75,0.00,,,0.00,WeatherCatV1.14B232,2013-02-28 19:08:00,
2013-02-28 11:13:00,60.1,52.1,30.44,WSW,255,3.0,4.0,75,0.00,,,0.00,WeatherCatV1.14B232,2013-02-28 19:13:00,
2013-02-28 11:18:00,60.1,52.5,30.44,West,273,1.0,3.0,76,0.00,,,0.00,WeatherCatV1.14B232,2013-02-28 19:18:00,
2013-02-28 11:23:00,59.9,52.0,30.44,WSW,246,3.0,4.0,75,0.00,,,0.00,WeatherCatV1.14B232,2013-02-28 19:23:00,
2013-02-28 11:28:00,60.2,52.6,30.44,WSW,239,3.0,4.0,76,0.00,,,0.00,WeatherCatV1.14B232,2013-02-28 19:28:00,
2013-02-28 11:33:00,60.3,52.3,30.44,SW,223,2.0,5.0,75,0.00,,,0.00,WeatherCatV1.14B232,2013-02-28 19:33:00,
2013-02-28 11:38:00,60.1,52.5,30.44,WSW,240,5.0,6.0,76,0.00,,,0.00,WeatherCatV1.14B232,2013-02-28 19:38:00,
2013-02-28 11:43:00,59.4,51.8,30.44,WSW,238,5.0,6.0,76,0.00,,,0.00,WeatherCatV1.14B232,2013-02-28 19:43:00,
2013-02-28 11:48:00,58.4,51.6,30.44,West,274,4.0,8.0,78,0.00,,,0.00,WeatherCatV1.14B232,2013-02-28 19:48:00,
2013-02-28 11:53:00,58.8,52.0,30.44,West,273,8.0,9.0,78,0.00,,,0.00,WeatherCatV1.14B232,2013-02-28 19:53:00,
2013-02-28 11:58:00,59.1,52.2,30.44,West,269,6.0,8.0,78,0.00,,,0.00,WeatherCatV1.14B232,2013-02-28 19:58:00,
2013-02-28 12:03:00,59.8,52.6,30.44,WSW,239,5.0,10.0,77,0.00,,,0.00,WeatherCatV1.14B232,2013-02-28 20:03:00,
2013-02-28 12:08:00,60.2,52.6,30.43,WSW,243,5.0,9.0,76,0.00,,,0.00,WeatherCatV1.14B232,2013-02-28 20:08:00,
2013-02-28 12:13:00,60.3,52.3,30.44,WSW,252,5.0,7.0,75,0.00,,,0.00,WeatherCatV1.14B232,2013-02-28 20:13:00,
2013-02-28 12:18:00,60.8,52.8,30.43,SW,228,5.0,10.0,75,0.00,,,0.00,WeatherCatV1.14B232,2013-02-28 20:18:00,
2013-02-28 12:23:00,61.6,53.6,30.43,West,262,6.0,8.0,75,0.00,,,0.00,WeatherCatV1.14B232,2013-02-28 20:23:00,
2013-02-28 12:28:00,61.7,53.0,30.43,West,269,3.0,8.0,73,0.00,,,0.00,WeatherCatV1.14B232,2013-02-28 20:28:00,
2013-02-28 12:33:00,62.2,52.7,30.43,West,271,7.0,9.0,71,0.00,,,0.00,WeatherCatV1.14B232,2013-02-28 20:33:00,
2013-02-28 12:38:00,62.3,53.2,30.43,WSW,257,5.0,7.0,72,0.00,,,0.00,WeatherCatV1.14B232,2013-02-28 20:38:00,
2013-02-28 12:43:00,62.3,52.8,30.43,West,272,4.0,9.0,71,0.00,,,0.00,WeatherCatV1.14B232,2013-02-28 20:43:00,
2013-02-28 12:48:00,62.0,52.9,30.43,West,271,4.0,6.0,72,0.00,,,0.00,WeatherCatV1.14B232,2013-02-28 20:48:00,
2013-02-28 12:53:00,62.7,52.8,30.43,SW,228,3.0,5.0,70,0.00,,,0.00,WeatherCatV1.14B232,2013-02-28 20:53:00,
2013-02-28 12:58:00,62.7,53.2,30.42,West,264,3.0,4.0,71,0.00,,,0.00,WeatherCatV1.14B232,2013-02-28 20:58:00,
2013-02-28 13:03:00,63.4,53.4,30.42,SW,224,3.0,3.0,70,0.00,,,0.00,WeatherCatV1.14B232,2013-02-28 21:03:00,
2013-02-28 13:08:00,63.7,53.7,30.42,West,278,3.0,8.0,70,0.00,,,0.00,WeatherCatV1.14B232,2013-02-28 21:08:00,
2013-02-28 13:13:00,63.6,53.6,30.41,WSW,242,3.0,6.0,70,0.00,,,0.00,WeatherCatV1.14B232,2013-02-28 21:13:00,
2013-02-28 13:18:00,63.7,54.1,30.41,West,260,4.0,6.0,71,0.00,,,0.00,WeatherCatV1.14B232,2013-02-28 21:18:00,
2013-02-28 13:23:00,63.6,54.0,30.41,WSW,256,5.0,6.0,71,0.00,,,0.00,WeatherCatV1.14B232,2013-02-28 21:23:00,
2013-02-28 13:28:00,63.6,54.4,30.40,ESE,108,1.0,3.0,72,0.00,,,0.00,WeatherCatV1.14B232,2013-02-28 21:28:00,
2013-02-28 13:33:00,64.5,54.9,30.40,West,262,3.0,5.0,71,0.00,,,0.00,WeatherCatV1.14B232,2013-02-28 21:33:00,
2013-02-28 13:38:00,64.3,54.7,30.40,SW,233,3.0,4.0,71,0.00,,,0.00,WeatherCatV1.14B232,2013-02-28 21:38:00,
2013-02-28 13:43:00,63.6,54.4,30.40,SE,132,1.0,4.0,72,0.00,,,0.00,WeatherCatV1.14B232,2013-02-28 21:43:00,
2013-02-28 13:48:00,63.8,54.2,30.40,SW,226,4.0,6.0,71,0.00,,,0.00,WeatherCatV1.14B232,2013-02-28 21:48:00,
2013-02-28 13:53:00,63.6,54.4,30.40,SSW,208,2.0,6.0,72,0.00,,,0.00,WeatherCatV1.14B232,2013-02-28 21:53:00,
2013-02-28 13:58:00,63.5,54.3,30.40,SW,218,2.0,6.0,72,0.00,,,0.00,WeatherCatV1.14B232,2013-02-28 21:58:00,
2013-02-28 14:03:00,63.0,53.8,30.40,WSW,246,4.0,7.0,72,0.00,,,0.00,WeatherCatV1.14B232,2013-02-28 22:03:00,
2013-02-28 14:08:00,62.8,54.0,30.40,West,271,4.0,8.0,73,0.00,,,0.00,WeatherCatV1.14B232,2013-02-28 22:08:00,
2013-02-28 14:13:00,62.7,53.9,30.40,WSW,253,3.0,7.0,73,0.00,,,0.00,WeatherCatV1.14B232,2013-02-28 22:13:00,
2013-02-28 14:18:00,63.1,53.9,30.40,SW,236,4.0,5.0,72,0.00,,,0.00,WeatherCatV1.14B232,2013-02-28 22:18:00,
2013-02-28 14:23:00,62.8,54.0,30.40,SW,236,4.0,5.0,73,0.00,,,0.00,WeatherCatV1.14B232,2013-02-28 22:23:00,
2013-02-28 14:28:00,63.0,54.2,30.40,West,265,3.0,6.0,73,0.00,,,0.00,WeatherCatV1.14B232,2013-02-28 22:28:00,
2013-02-28 14:33:00,63.4,54.2,30.40,WSW,243,4.0,6.0,72,0.00,,,0.00,WeatherCatV1.14B232,2013-02-28 22:33:00,
2013-02-28 14:38:00,63.6,54.4,30.40,SW,236,4.0,6.0,72,0.00,,,0.00,WeatherCatV1.14B232,2013-02-28 22:38:00,
2013-02-28 14:43:00,64.2,54.6,30.40,SW,235,4.0,4.0,71,0.00,,,0.00,WeatherCatV1.14B232,2013-02-28 22:43:00,
2013-02-28 14:48:00,64.6,55.4,30.40,WSW,253,3.0,3.0,72,0.00,,,0.00,WeatherCatV1.14B232,2013-02-28 22:48:00,
2013-02-28 14:53:00,64.8,54.4,30.40,West,271,3.0,5.0,69,0.00,,,0.00,WeatherCatV1.14B232,2013-02-28 22:53:00,
2013-02-28 14:58:00,64.1,54.5,30.40,WSW,239,3.0,4.0,71,0.00,,,0.00,WeatherCatV1.14B232,2013-02-28 22:58:00,
2013-02-28 15:03:00,64.0,54.4,30.40,WSW,250,7.0,8.0,71,0.00,,,0.00,WeatherCatV1.14B232,2013-02-28 23:03:00,
2013-02-28 15:08:00,63.7,54.1,30.40,West,270,3.0,4.0,71,0.00,,,0.00,WeatherCatV1.14B232,2013-02-28 23:08:00,
2013-02-28 15:13:00,63.7,54.5,30.40,WSW,243,2.0,5.0,72,0.00,,,0.00,WeatherCatV1.14B232,2013-02-28 23:13:00,
2013-02-28 15:18:00,64.4,54.8,30.40,WSW,250,3.0,4.0,71,0.00,,,0.00,WeatherCatV1.14B232,2013-02-28 23:18:00,
2013-02-28 15:23:00,65.1,55.1,30.40,WSW,247,0.0,4.0,70,0.00,,,0.00,WeatherCatV1.14B232,2013-02-28 23:23:00,
2013-02-28 15:28:00,66.7,55.8,30.40,West,262,2.0,2.0,68,0.00,,,0.00,WeatherCatV1.14B232,2013-02-28 23:28:00,
2013-02-28 15:33:00,67.9,55.7,30.40,NNE,16,0.0,1.0,65,0.00,,,0.00,WeatherCatV1.14B232,2013-02-28 23:33:00,
2013-02-28 15:38:00,68.8,55.2,30.40,NE,37,0.0,2.0,62,0.00,,,0.00,WeatherCatV1.14B232,2013-02-28 23:38:00,
2013-02-28 15:43:00,68.2,55.5,30.40,NE,37,0.0,1.0,64,0.00,,,0.00,WeatherCatV1.14B232,2013-02-28 23:43:00,
2013-02-28 15:48:00,67.9,56.1,30.40,NE,37,0.0,0.0,66,0.00,,,0.00,WeatherCatV1.14B232,2013-02-28 23:48:00,
2013-02-28 15:53:00,67.6,54.5,30.40,NE,39,1.0,3.0,63,0.00,,,0.00,WeatherCatV1.14B232,2013-02-28 23:53:00,
2013-02-28 15:58:00,66.6,54.9,30.39,NE,53,1.0,2.0,66,0.00,,,0.00,WeatherCatV1.14B232,2013-02-28 23:58:00,
2013-02-28 16:03:00,66.0,54.7,30.39,SE,134,0.0,2.0,67,0.00,,,0.00,WeatherCatV1.14B232,2013-03-01 00:03:00,
2013-02-28 16:08:00,66.0,55.1,30.39,SE,134,0.0,0.0,68,0.00,,,0.00,WeatherCatV1.14B232,2013-03-01 00:08:00,
2013-02-28 16:13:00,65.6,54.3,30.39,SE,124,0.0,0.0,67,0.00,,,0.00,WeatherCatV1.14B232,2013-03-01 00:13:00,
2013-02-28 16:18:00,65.8,54.5,30.39,SE,124,0.0,0.0,67,0.00,,,0.00,WeatherCatV1.14B232,2013-03-01 00:18:00,
2013-02-28 16:23:00,66.0,54.7,30.39,ESE,103,0.0,0.0,67,0.00,,,0.00,WeatherCatV1.14B232,2013-03-01 00:23:00,
2013-02-28 16:28:00,66.4,55.1,30.39,ENE,70,0.0,0.0,67,0.00,,,0.00,WeatherCatV1.14B232,2013-03-01 00:28:00,
2013-02-28 16:33:00,66.6,54.9,30.38,ENE,70,0.0,0.0,66,0.00,,,0.00,WeatherCatV1.14B232,2013-03-01 00:33:00,
2013-02-28 16:38:00,67.4,55.2,30.39,ENE,59,0.0,0.0,65,0.00,,,0.00,WeatherCatV1.14B232,2013-03-01 00:38:00,
2013-02-28 16:43:00,67.8,55.2,30.38,ENE,60,0.0,0.0,64,0.00,,,0.00,WeatherCatV1.14B232,2013-03-01 00:43:00,
2013-02-28 16:48:00,67.5,54.0,30.38,ENE,59,0.0,0.0,62,0.00,,,0.00,WeatherCatV1.14B232,2013-03-01 00:48:00,
2013-02-28 16:53:00,66.9,54.7,30.38,ENE,60,0.0,0.0,65,0.00,,,0.00,WeatherCatV1.14B232,2013-03-01 00:53:00,
2013-02-28 16:58:00,66.9,54.7,30.38,ENE,60,0.0,0.0,65,0.00,,,0.00,WeatherCatV1.14B232,2013-03-01 00:58:00,
2013-02-28 17:03:00,66.9,54.3,30.38,ENE,60,0.0,0.0,64,0.00,,,0.00,WeatherCatV1.14B232,2013-03-01 01:03:00,
2013-02-28 17:08:00,66.1,54.0,30.39,NE,53,0.0,0.0,65,0.00,,,0.00,WeatherCatV1.14B232,2013-03-01 01:08:00,
2013-02-28 17:13:00,67.1,55.4,30.39,ENE,63,0.0,0.0,66,0.00,,,0.00,WeatherCatV1.14B232,2013-03-01 01:13:00,
2013-02-28 17:18:00,67.5,54.9,30.39,ENE,60,0.0,0.0,64,0.00,,,0.00,WeatherCatV1.14B232,2013-03-01 01:18:00,
2013-02-28 17:23:00,66.4,54.3,30.39,ENE,70,0.0,0.0,65,0.00,,,0.00,WeatherCatV1.14B232,2013-03-01 01:23:00,
2013-02-28 17:28:00,65.1,53.9,30.39,SE,134,0.0,0.0,67,0.00,,,0.00,WeatherCatV1.14B232,2013-03-01 01:28:00,
2013-02-28 17:33:00,64.7,54.3,30.39,SSE,149,0.0,0.0,69,0.00,,,0.00,WeatherCatV1.14B232,2013-03-01 01:33:00,
2013-02-28 17:38:00,65.0,54.2,30.39,WNW,291,0.0,0.0,68,0.00,,,0.00,WeatherCatV1.14B232,2013-03-01 01:38:00,
2013-02-28 17:43:00,65.1,54.3,30.39,SSW,194,0.0,0.0,68,0.00,,,0.00,WeatherCatV1.14B232,2013-03-01 01:43:00,
2013-02-28 17:48:00,64.4,53.2,30.39,NE,37,0.0,0.0,67,0.00,,,0.00,WeatherCatV1.14B232,2013-03-01 01:48:00,
2013-02-28 17:53:00,63.5,53.1,30.39,NE,36,0.0,4.0,69,0.00,,,0.00,WeatherCatV1.14B232,2013-03-01 01:53:00,
2013-02-28 17:58:00,63.0,53.1,30.39,NE,35,0.0,0.0,70,0.00,,,0.00,WeatherCatV1.14B232,2013-03-01 01:58:00,
2013-02-28 18:03:00,62.2,52.7,30.39,NE,36,0.0,0.0,71,0.00,,,0.00,WeatherCatV1.14B232,2013-03-01 02:03:00,
2013-02-28 18:08:00,61.2,52.5,30.39,NE,35,0.0,0.0,73,0.00,,,0.00,WeatherCatV1.14B232,2013-03-01 02:08:00,
2013-02-28 18:13:00,60.4,52.1,30.39,NE,35,0.0,0.0,74,0.00,,,0.00,WeatherCatV1.14B232,2013-03-01 02:13:00,
2013-02-28 18:18:00,59.6,51.7,30.39,NE,35,0.0,0.0,75,0.00,,,0.00,WeatherCatV1.14B232,2013-03-01 02:18:00,
2013-02-28 18:23:00,58.9,51.7,30.39,NE,35,0.0,0.0,77,0.00,,,0.00,WeatherCatV1.14B232,2013-03-01 02:23:00,
2013-02-28 18:28:00,58.2,51.0,30.39,NE,36,0.0,0.0,77,0.00,,,0.00,WeatherCatV1.14B232,2013-03-01 02:28:00,
2013-02-28 18:33:00,57.9,51.1,30.40,NE,35,0.0,0.0,78,0.00,,,0.00,WeatherCatV1.14B232,2013-03-01 02:33:00,
2013-02-28 18:38:00,57.6,51.1,30.40,NE,35,0.0,0.0,79,0.00,,,0.00,WeatherCatV1.14B232,2013-03-01 02:38:00,
2013-02-28 18:43:00,57.2,50.7,30.40,NE,36,0.0,0.0,79,0.00,,,0.00,WeatherCatV1.14B232,2013-03-01 02:43:00,
2013-02-28 18:48:00,56.9,50.8,30.40,NE,35,0.0,0.0,80,0.00,,,0.00,WeatherCatV1.14B232,2013-03-01 02:48:00,
2013-02-28 18:53:00,56.8,50.7,30.40,NE,35,0.0,0.0,80,0.00,,,0.00,WeatherCatV1.14B232,2013-03-01 02:53:00,
2013-02-28 18:58:00,56.5,50.7,30.40,NE,36,0.0,0.0,81,0.00,,,0.00,WeatherCatV1.14B232,2013-03-01 02:58:00,
2013-02-28 19:03:00,56.5,50.7,30.40,NE,36,0.0,0.0,81,0.00,,,0.00,WeatherCatV1.14B232,2013-03-01 03:03:00,
2013-02-28 19:08:00,56.4,50.6,30.40,NE,37,0.0,0.0,81,0.00,,,0.00,WeatherCatV1.14B232,2013-03-01 03:08:00,
2013-02-28 19:13:00,56.7,50.9,30.41,NE,37,0.0,0.0,81,0.00,,,0.00,WeatherCatV1.14B232,2013-03-01 03:13:00,
2013-02-28 19:18:00,56.9,50.8,30.41,NE,37,0.0,0.0,80,0.00,,,0.00,WeatherCatV1.14B232,2013-03-01 03:18:00,
2013-02-28 19:23:00,56.9,50.8,30.41,NE,37,0.0,0.0,80,0.00,,,0.00,WeatherCatV1.14B232,2013-03-01 03:23:00,
2013-02-28 19:28:00,56.6,50.8,30.41,NE,37,0.0,0.0,81,0.00,,,0.00,WeatherCatV1.14B232,2013-03-01 03:28:00,
2013-02-28 19:33:00,56.4,50.6,30.41,ESE,121,0.0,0.0,81,0.00,,,0.00,WeatherCatV1.14B232,2013-03-01 03:33:00,
2013-02-28 19:38:00,55.7,50.0,30.41,SE,129,0.0,0.0,81,0.00,,,0.00,WeatherCatV1.14B232,2013-03-01 03:38:00,
2013-02-28 19:43:00,55.2,49.8,30.41,SW,224,0.0,0.0,82,0.00,,,0.00,WeatherCatV1.14B232,2013-03-01 03:43:00,
2013-02-28 19:48:00,54.7,49.3,30.41,SW,224,0.0,0.0,82,0.00,,,0.00,WeatherCatV1.14B232,2013-03-01 03:48:00,
2013-02-28 19:53:00,54.5,49.4,30.41,SE,135,0.0,0.0,83,0.00,,,0.00,WeatherCatV1.14B232,2013-03-01 03:53:00,
2013-02-28 19:58:00,54.2,49.1,30.42,South,188,0.0,0.0,83,0.00,,,0.00,WeatherCatV1.14B232,2013-03-01 03:58:00,
2013-02-28 20:03:00,53.7,49.0,30.42,SE,124,0.0,0.0,84,0.00,,,0.00,WeatherCatV1.14B232,2013-03-01 04:03:00,
2013-02-28 20:08:00,53.3,48.6,30.42,SE,134,0.0,0.0,84,0.00,,,0.00,WeatherCatV1.14B232,2013-03-01 04:08:00,
2013-02-28 20:13:00,53.1,48.7,30.42,SW,233,1.0,2.0,85,0.00,,,0.00,WeatherCatV1.14B232,2013-03-01 04:13:00,
2013-02-28 20:18:00,53.0,48.9,30.42,South,188,0.0,0.0,86,0.00,,,0.00,WeatherCatV1.14B232,2013-03-01 04:18:00,
2013-02-28 20:23:00,53.1,49.0,30.42,SSW,194,0.0,0.0,86,0.00,,,0.00,WeatherCatV1.14B232,2013-03-01 04:23:00,
2013-02-28 20:28:00,53.2,49.1,30.42,SE,134,0.0,0.0,86,0.00,,,0.00,WeatherCatV1.14B232,2013-03-01 04:28:00,
2013-02-28 20:33:00,53.3,49.2,30.42,SSW,193,0.0,0.0,86,0.00,,,0.00,WeatherCatV1.14B232,2013-03-01 04:33:00,
2013-02-28 20:38:00,53.0,48.6,30.42,SSW,203,0.0,0.0,85,0.00,,,0.00,WeatherCatV1.14B232,2013-03-01 04:38:00,
2013-02-28 20:43:00,52.4,48.3,30.42,SW,219,1.0,2.0,86,0.00,,,0.00,WeatherCatV1.14B232,2013-03-01 04:43:00,
2013-02-28 20:48:00,52.0,48.3,30.42,SW,222,2.0,2.0,87,0.00,,,0.00,WeatherCatV1.14B232,2013-03-01 04:48:00,
2013-02-28 20:53:00,51.6,47.9,30.42,South,177,0.0,1.0,87,0.00,,,0.00,WeatherCatV1.14B232,2013-03-01 04:53:00,
2013-02-28 20:58:00,51.4,47.7,30.42,SSW,212,0.0,0.0,87,0.00,,,0.00,WeatherCatV1.14B232,2013-03-01 04:58:00,
2013-02-28 21:00:00,51.3,47.6,30.42,SSE,158,0.0,0.0,87,0.00,,,0.00,WeatherCatV1.14B232,2013-03-01 05:00:00,
2013-02-28 21:01:00,51.2,47.8,30.42,SE,142,0.0,0.0,88,0.00,,,0.00,WeatherCatV1.14B232,2013-03-01 05:01:00,
2013-02-28 21:06:00,51.1,47.7,30.42,SSE,160,0.0,2.0,88,0.00,,,0.00,WeatherCatV1.14B232,2013-03-01 05:06:00,
2013-02-28 21:11:00,51.0,47.6,30.42,South,188,0.0,0.0,88,0.00,,,0.00,WeatherCatV1.14B232,2013-03-01 05:11:00,
2013-02-28 21:16:00,51.0,47.6,30.42,South,188,0.0,0.0,88,0.00,,,0.00,WeatherCatV1.14B232,2013-03-01 05:16:00,
2013-02-28 21:21:00,51.2,48.1,30.43,South,187,0.0,0.0,89,0.00,,,0.00,WeatherCatV1.14B232,2013-03-01 05:21:00,
2013-02-28 21:26:00,51.6,48.5,30.42,South,189,0.0,0.0,89,0.00,,,0.00,WeatherCatV1.14B232,2013-03-01 05:26:00,
2013-02-28 21:27:00,51.7,48.6,30.43,South,189,0.0,0.0,89,0.00,,,0.00,WeatherCatV1.14B232,2013-03-01 05:27:00,
2013-02-28 21:32:00,52.3,49.2,30.43,WSW,240,0.0,0.0,89,0.00,,,0.00,WeatherCatV1.14B232,2013-03-01 05:32:00,
2013-02-28 21:37:00,52.5,49.4,30.43,WSW,240,0.0,0.0,89,0.00,,,0.00,WeatherCatV1.14B232,2013-03-01 05:37:00,
2013-02-28 21:42:00,52.5,49.0,30.43,WSW,240,0.0,0.0,88,0.00,,,0.00,WeatherCatV1.14B232,2013-03-01 05:42:00,
2013-02-28 21:47:00,52.8,49.3,30.43,SSE,159,0.0,0.0,88,0.00,,,0.00,WeatherCatV1.14B232,2013-03-01 05:47:00,
2013-02-28 21:52:00,53.1,49.6,30.43,SSW,197,0.0,0.0,88,0.00,,,0.00,WeatherCatV1.14B232,2013-03-01 05:52:00,
2013-02-28 21:57:00,53.3,49.5,30.43,SW,225,0.0,0.0,87,0.00,,,0.00,WeatherCatV1.14B232,2013-03-01 05:57:00,
2013-02-28 22:00:00,53.3,49.5,30.43,SW,225,0.0,0.0,87,0.00,,,0.00,WeatherCatV1.14B232,2013-03-01 06:00:00,
2013-02-28 22:05:00,53.2,49.1,30.43,SW,225,0.0,0.0,86,0.00,,,0.00,WeatherCatV1.14B232,2013-03-01 06:05:00,
2013-02-28 22:10:00,53.0,48.9,30.43,SW,225,0.0,0.0,86,0.00,,,0.00,WeatherCatV1.14B232,2013-03-01 06:10:00,
2013-02-28 22:15:00,53.2,49.4,30.43,SW,225,0.0,0.0,87,0.00,,,0.00,WeatherCatV1.14B232,2013-03-01 06:15:00,
2013-02-28 22:20:00,53.1,49.0,30.43,SW,225,0.0,0.0,86,0.00,,,0.00,WeatherCatV1.14B232,2013-03-01 06:20:00,
2013-02-28 22:25:00,52.8,48.7,30.44,SW,225,0.0,0.0,86,0.00,,,0.00,WeatherCatV1.14B232,2013-03-01 06:25:00,
2013-02-28 22:30:00,52.6,48.8,30.43,SW,221,0.0,0.0,87,0.00,,,0.00,WeatherCatV1.14B232,2013-03-01 06:30:00,
2013-02-28 22:35:00,52.5,48.7,30.43,SW,222,0.0,0.0,87,0.00,,,0.00,WeatherCatV1.14B232,2013-03-01 06:35:00,
2013-02-28 22:40:00,52.8,49.0,30.43,SW,221,0.0,0.0,87,0.00,,,0.00,WeatherCatV1.14B232,2013-03-01 06:40:00,
2013-02-28 22:45:00,52.9,49.1,30.43,SW,222,0.0,0.0,87,0.00,,,0.00,WeatherCatV1.14B232,2013-03-01 06:45:00,
2013-02-28 22:50:00,52.9,48.8,30.43,SW,222,0.0,0.0,86,0.00,,,0.00,WeatherCatV1.14B232,2013-03-01 06:50:00,
2013-02-28 22:55:00,52.9,48.8,30.43,SW,222,0.0,0.0,86,0.00,,,0.00,WeatherCatV1.14B232,2013-03-01 06:55:00,
2013-02-28 23:00:00,52.8,48.7,30.43,SW,226,0.0,0.0,86,0.00,,,0.00,WeatherCatV1.14B232,2013-03-01 07:00:00,
2013-02-28 23:05:00,52.6,48.5,30.43,SW,233,0.0,0.0,86,0.00,,,0.00,WeatherCatV1.14B232,2013-03-01 07:05:00,
2013-02-28 23:10:00,52.4,48.3,30.43,SSE,166,0.0,0.0,86,0.00,,,0.00,WeatherCatV1.14B232,2013-03-01 07:10:00,
2013-02-28 23:15:00,52.2,48.1,30.43,SSE,150,0.0,0.0,86,0.00,,,0.00,WeatherCatV1.14B232,2013-03-01 07:15:00,
2013-02-28 23:20:00,51.9,48.2,30.43,SSE,150,0.0,0.0,87,0.00,,,0.00,WeatherCatV1.14B232,2013-03-01 07:20:00,
2013-02-28 23:25:00,51.9,48.2,30.43,SSE,150,0.0,0.0,87,0.00,,,0.00,WeatherCatV1.14B232,2013-03-01 07:25:00,
2013-02-28 23:30:00,52.1,48.7,30.43,ESE,117,0.0,0.0,88,0.00,,,0.00,WeatherCatV1.14B232,2013-03-01 07:30:00,
2013-02-28 23:35:00,52.3,48.9,30.43,ESE,115,0.0,0.0,88,0.00,,,0.00,WeatherCatV1.14B232,2013-03-01 07:35:00,
2013-02-28 23:40:00,52.4,49.0,30.43,ESE,116,0.0,0.0,88,0.00,,,0.00,WeatherCatV1.14B232,2013-03-01 07:40:00,
2013-02-28 23:45:00,52.3,48.9,30.43,East,101,0.0,0.0,88,0.00,,,0.00,WeatherCatV1.14B232,2013-03-01 07:45:00,
2013-02-28 23:50:00,52.2,48.4,30.43,South,172,0.0,0.0,87,0.00,,,0.00,WeatherCatV1.14B232,2013-03-01 07:50:00,
2013-02-28 23:55:00,52.0,48.6,30.43,SE,145,0.0,0.0,88,0.00,,,0.00,WeatherCatV1.14B232,2013-03-01 07:55:00,